sensor_id;sensor_type;location;lat;lon;timestamp;pressure;altitude;pressure_sealevel;temperature;humidity
82474;BME280;72350;53.232;6.556;2023-08-21T00:02:14;102210.09;;;21.81;64.24
82474;BME280;72350;53.232;6.556;2023-08-21T00:04:43;102210.13;;;21.74;64.36
82474;BME280;72350;53.232;6.556;2023-08-21T00:07:12;102218.56;;;21.74;64.04
82474;BME280;72350;53.232;6.556;2023-08-21T00:09:40;102212.69;;;21.76;64.43
82474;BME280;72350;53.232;6.556;2023-08-21T00:12:08;102215.09;;;21.72;64.89
82474;BME280;72350;53.232;6.556;2023-08-21T00:14:36;102210.78;;;21.70;64.10
82474;BME280;72350;53.232;6.556;2023-08-21T00:17:04;102220.72;;;21.66;64.79
82474;BME280;72350;53.232;6.556;2023-08-21T00:19:32;102214.25;;;21.65;64.49
82474;BME280;72350;53.232;6.556;2023-08-21T00:22:01;102220.31;;;21.62;64.57
82474;BME280;72350;53.232;6.556;2023-08-21T00:24:29;102220.53;;;21.60;64.42
82474;BME280;72350;53.232;6.556;2023-08-21T00:26:58;102230.03;;;21.59;64.86
82474;BME280;72350;53.232;6.556;2023-08-21T00:29:27;102218.81;;;21.59;64.78
82474;BME280;72350;53.232;6.556;2023-08-21T00:31:55;102222.91;;;21.64;64.04
82474;BME280;72350;53.232;6.556;2023-08-21T00:34:23;102221.41;;;21.61;64.38
82474;BME280;72350;53.232;6.556;2023-08-21T00:36:51;102217.75;;;21.54;64.61
82474;BME280;72350;53.232;6.556;2023-08-21T00:39:20;102224.88;;;21.50;65.22
82474;BME280;72350;53.232;6.556;2023-08-21T00:41:48;102215.81;;;21.48;64.96
82474;BME280;72350;53.232;6.556;2023-08-21T00:44:16;102210.66;;;21.45;65.19
82474;BME280;72350;53.232;6.556;2023-08-21T00:46:44;102208.94;;;21.44;64.74
82474;BME280;72350;53.232;6.556;2023-08-21T00:49:12;102205.91;;;21.45;65.09
82474;BME280;72350;53.232;6.556;2023-08-21T00:51:40;102202.47;;;21.43;65.40
82474;BME280;72350;53.232;6.556;2023-08-21T00:54:08;102212.81;;;21.43;64.95
82474;BME280;72350;53.232;6.556;2023-08-21T00:56:37;102216.25;;;21.45;65.30
82474;BME280;72350;53.232;6.556;2023-08-21T00:59:05;102213.69;;;21.43;65.15
82474;BME280;72350;53.232;6.556;2023-08-21T01:01:33;102204.41;;;21.36;65.46
82474;BME280;72350;53.232;6.556;2023-08-21T01:04:03;102202.47;;;21.36;65.62
82474;BME280;72350;53.232;6.556;2023-08-21T01:06:31;102205.47;;;21.35;65.28
82474;BME280;72350;53.232;6.556;2023-08-21T01:09:02;102206.34;;;21.35;65.20
82474;BME280;72350;53.232;6.556;2023-08-21T01:11:40;102211.56;;;21.38;65.44
82474;BME280;72350;53.232;6.556;2023-08-21T01:14:17;102204.41;;;21.36;65.36
82474;BME280;72350;53.232;6.556;2023-08-21T01:16:53;102213.25;;;21.33;65.26
82474;BME280;72350;53.232;6.556;2023-08-21T01:19:26;102213.88;;;21.35;65.19
82474;BME280;72350;53.232;6.556;2023-08-21T01:21:58;102214.31;;;21.45;65.48
82474;BME280;72350;53.232;6.556;2023-08-21T01:24:27;102207.41;;;21.34;65.46
82474;BME280;72350;53.232;6.556;2023-08-21T01:26:55;102220.38;;;21.35;65.28
82474;BME280;72350;53.232;6.556;2023-08-21T01:29:23;102211.53;;;21.32;65.09
82474;BME280;72350;53.232;6.556;2023-08-21T01:31:58;102214.97;;;21.34;65.07
82474;BME280;72350;53.232;6.556;2023-08-21T01:34:30;102214.31;;;21.32;65.13
82474;BME280;72350;53.232;6.556;2023-08-21T01:37:00;102218.88;;;21.26;65.58
82474;BME280;72350;53.232;6.556;2023-08-21T01:39:30;102218.63;;;21.34;65.59
82474;BME280;72350;53.232;6.556;2023-08-21T01:41:58;102214.34;;;21.25;65.25
82474;BME280;72350;53.232;6.556;2023-08-21T01:44:26;102216.94;;;21.20;65.77
82474;BME280;72350;53.232;6.556;2023-08-21T01:46:54;102222.13;;;21.23;65.69
82474;BME280;72350;53.232;6.556;2023-08-21T01:49:21;102222.75;;;21.19;65.78
82474;BME280;72350;53.232;6.556;2023-08-21T01:51:49;102212.44;;;21.12;66.34
82474;BME280;72350;53.232;6.556;2023-08-21T01:54:17;102218.03;;;21.12;65.99
82474;BME280;72350;53.232;6.556;2023-08-21T01:56:46;102215.44;;;21.11;66.03
82474;BME280;72350;53.232;6.556;2023-08-21T01:59:16;102220.00;;;21.12;66.00
82474;BME280;72350;53.232;6.556;2023-08-21T02:01:44;102224.28;;;21.14;65.69
82474;BME280;72350;53.232;6.556;2023-08-21T02:04:12;102216.53;;;21.03;66.17
82474;BME280;72350;53.232;6.556;2023-08-21T02:06:40;102220.22;;;20.97;66.25
82474;BME280;72350;53.232;6.556;2023-08-21T02:09:08;102215.69;;;20.96;66.76
82474;BME280;72350;53.232;6.556;2023-08-21T02:11:36;102229.25;;;20.99;66.28
82474;BME280;72350;53.232;6.556;2023-08-21T02:14:05;102227.31;;;21.00;66.45
82474;BME280;72350;53.232;6.556;2023-08-21T02:16:33;102226.91;;;20.96;66.10
82474;BME280;72350;53.232;6.556;2023-08-21T02:19:03;102223.00;;;20.97;66.50
82474;BME280;72350;53.232;6.556;2023-08-21T02:21:31;102226.22;;;21.01;66.22
82474;BME280;72350;53.232;6.556;2023-08-21T02:23:59;102222.38;;;20.95;66.27
82474;BME280;72350;53.232;6.556;2023-08-21T02:26:26;102224.50;;;20.93;65.92
82474;BME280;72350;53.232;6.556;2023-08-21T02:28:56;102218.91;;;20.93;66.49
82474;BME280;72350;53.232;6.556;2023-08-21T02:31:25;102223.88;;;20.98;66.51
82474;BME280;72350;53.232;6.556;2023-08-21T02:33:54;102223.88;;;20.98;66.21
82474;BME280;72350;53.232;6.556;2023-08-21T02:36:22;102222.56;;;21.00;66.23
82474;BME280;72350;53.232;6.556;2023-08-21T02:38:50;102225.38;;;21.00;66.04
82474;BME280;72350;53.232;6.556;2023-08-21T02:41:18;102224.09;;;20.96;66.39
82474;BME280;72350;53.232;6.556;2023-08-21T02:43:46;102220.19;;;20.90;66.13
82474;BME280;72350;53.232;6.556;2023-08-21T02:46:14;102225.59;;;20.92;66.38
82474;BME280;72350;53.232;6.556;2023-08-21T02:48:44;102227.53;;;20.91;66.19
82474;BME280;72350;53.232;6.556;2023-08-21T02:51:12;102225.81;;;20.90;66.05
82474;BME280;72350;53.232;6.556;2023-08-21T02:53:40;102226.91;;;20.89;66.23
82474;BME280;72350;53.232;6.556;2023-08-21T02:56:09;102225.38;;;20.87;66.23
82474;BME280;72350;53.232;6.556;2023-08-21T02:58:37;102219.13;;;20.85;66.35
82474;BME280;72350;53.232;6.556;2023-08-21T03:01:05;102218.47;;;20.83;66.37
82474;BME280;72350;53.232;6.556;2023-08-21T03:03:33;102225.59;;;20.85;66.33
82474;BME280;72350;53.232;6.556;2023-08-21T03:06:03;102217.84;;;20.81;66.64
82474;BME280;72350;53.232;6.556;2023-08-21T03:08:31;102222.38;;;20.82;66.54
82474;BME280;72350;53.232;6.556;2023-08-21T03:10:59;102218.25;;;20.78;66.64
82474;BME280;72350;53.232;6.556;2023-08-21T03:13:27;102215.25;;;20.72;66.54
82474;BME280;72350;53.232;6.556;2023-08-21T03:15:55;102216.78;;;20.68;66.66
82474;BME280;72350;53.232;6.556;2023-08-21T03:18:23;102220.44;;;20.69;66.65
82474;BME280;72350;53.232;6.556;2023-08-21T03:20:50;102213.31;;;20.66;66.91
82474;BME280;72350;53.232;6.556;2023-08-21T03:23:20;102218.28;;;20.71;66.55
82474;BME280;72350;53.232;6.556;2023-08-21T03:25:52;102211.16;;;20.68;66.50
82474;BME280;72350;53.232;6.556;2023-08-21T03:28:19;102217.19;;;20.72;66.67
82474;BME280;72350;53.232;6.556;2023-08-21T03:30:47;102210.31;;;20.75;66.59
82474;BME280;72350;53.232;6.556;2023-08-21T03:33:16;102205.34;;;20.70;66.52
82474;BME280;72350;53.232;6.556;2023-08-21T03:35:44;102211.38;;;20.67;66.34
82474;BME280;72350;53.232;6.556;2023-08-21T03:38:12;102209.00;;;20.64;66.47
82474;BME280;72350;53.232;6.556;2023-08-21T03:40:45;102209.44;;;20.61;67.00
82474;BME280;72350;53.232;6.556;2023-08-21T03:43:13;102204.28;;;20.58;66.91
82474;BME280;72350;53.232;6.556;2023-08-21T03:45:41;102204.03;;;20.59;66.85
82474;BME280;72350;53.232;6.556;2023-08-21T03:48:10;102204.47;;;20.56;67.29
82474;BME280;72350;53.232;6.556;2023-08-21T03:50:40;102211.81;;;20.57;67.16
82474;BME280;72350;53.232;6.556;2023-08-21T03:53:08;102202.09;;;20.60;66.65
82474;BME280;72350;53.232;6.556;2023-08-21T03:55:36;102206.63;;;20.54;66.99
82474;BME280;72350;53.232;6.556;2023-08-21T03:58:05;102204.22;;;20.51;67.16
82474;BME280;72350;53.232;6.556;2023-08-21T04:00:33;102204.22;;;20.51;67.01
82474;BME280;72350;53.232;6.556;2023-08-21T04:03:01;102200.13;;;20.54;67.06
82474;BME280;72350;53.232;6.556;2023-08-21T04:05:29;102201.91;;;20.61;66.35
82474;BME280;72350;53.232;6.556;2023-08-21T04:07:56;102199.28;;;20.53;66.59
82474;BME280;72350;53.232;6.556;2023-08-21T04:10:25;102202.53;;;20.50;66.90
82474;BME280;72350;53.232;6.556;2023-08-21T04:12:55;102201.66;;;20.49;67.02
82474;BME280;72350;53.232;6.556;2023-08-21T04:15:28;102209.81;;;20.51;66.82
82474;BME280;72350;53.232;6.556;2023-08-21T04:17:56;102203.16;;;20.52;66.95
82474;BME280;72350;53.232;6.556;2023-08-21T04:20:24;102204.72;;;20.55;66.53
82474;BME280;72350;53.232;6.556;2023-08-21T04:22:52;102209.44;;;20.54;66.93
82474;BME280;72350;53.232;6.556;2023-08-21T04:25:20;102207.25;;;20.49;67.00
82474;BME280;72350;53.232;6.556;2023-08-21T04:27:47;102210.91;;;20.50;67.02
82474;BME280;72350;53.232;6.556;2023-08-21T04:30:15;102210.69;;;20.45;66.88
82474;BME280;72350;53.232;6.556;2023-08-21T04:32:47;102208.53;;;20.54;66.86
82474;BME280;72350;53.232;6.556;2023-08-21T04:35:15;102213.50;;;20.45;66.68
82474;BME280;72350;53.232;6.556;2023-08-21T04:37:46;102210.25;;;20.48;66.48
82474;BME280;72350;53.232;6.556;2023-08-21T04:40:17;102215.66;;;20.49;66.80
82474;BME280;72350;53.232;6.556;2023-08-21T04:42:48;102212.84;;;20.49;67.06
82474;BME280;72350;53.232;6.556;2023-08-21T04:45:17;102218.88;;;20.53;66.37
82474;BME280;72350;53.232;6.556;2023-08-21T04:47:46;102218.22;;;20.51;66.74
82474;BME280;72350;53.232;6.556;2023-08-21T04:50:14;102209.88;;;20.58;66.52
82474;BME280;72350;53.232;6.556;2023-08-21T04:52:43;102205.75;;;20.54;66.83
82474;BME280;72350;53.232;6.556;2023-08-21T04:55:11;102211.56;;;20.52;67.01
82474;BME280;72350;53.232;6.556;2023-08-21T04:57:39;102207.28;;;20.56;66.71
82474;BME280;72350;53.232;6.556;2023-08-21T05:00:09;102206.44;;;20.89;65.48
82474;BME280;72350;53.232;6.556;2023-08-21T05:02:40;102208.09;;;21.30;64.48
82474;BME280;72350;53.232;6.556;2023-08-21T05:05:10;102212.50;;;21.71;62.56
82474;BME280;72350;53.232;6.556;2023-08-21T05:07:38;102210.84;;;22.01;61.73
82474;BME280;72350;53.232;6.556;2023-08-21T05:10:07;102213.59;;;22.21;61.11
82474;BME280;72350;53.232;6.556;2023-08-21T05:12:37;102206.78;;;22.36;60.68
82474;BME280;72350;53.232;6.556;2023-08-21T05:15:07;102211.88;;;22.52;59.47
82474;BME280;72350;53.232;6.556;2023-08-21T05:17:35;102224.78;;;22.60;59.76
82474;BME280;72350;53.232;6.556;2023-08-21T05:20:04;102215.09;;;22.81;59.53
82474;BME280;72350;53.232;6.556;2023-08-21T05:22:33;102210.88;;;22.97;58.65
82474;BME280;72350;53.232;6.556;2023-08-21T05:25:02;102208.00;;;23.03;58.53
82474;BME280;72350;53.232;6.556;2023-08-21T05:27:32;102218.34;;;23.28;58.63
82474;BME280;72350;53.232;6.556;2023-08-21T05:29:59;102220.91;;;23.29;58.01
82474;BME280;72350;53.232;6.556;2023-08-21T05:32:28;102222.50;;;23.25;58.15
82474;BME280;72350;53.232;6.556;2023-08-21T05:34:56;102222.50;;;23.25;58.42
82474;BME280;72350;53.232;6.556;2023-08-21T05:37:24;102229.13;;;23.31;58.63
82474;BME280;72350;53.232;6.556;2023-08-21T05:39:56;102223.19;;;23.39;58.34
82474;BME280;72350;53.232;6.556;2023-08-21T05:42:24;102231.31;;;23.47;58.16
82474;BME280;72350;53.232;6.556;2023-08-21T05:44:52;102231.25;;;23.54;57.79
82474;BME280;72350;53.232;6.556;2023-08-21T05:47:21;102229.22;;;23.61;58.05
82474;BME280;72350;53.232;6.556;2023-08-21T05:49:51;102225.19;;;23.75;57.35
82474;BME280;72350;53.232;6.556;2023-08-21T05:52:21;102234.88;;;23.80;57.47
82474;BME280;72350;53.232;6.556;2023-08-21T05:54:49;102233.75;;;23.99;57.09
82474;BME280;72350;53.232;6.556;2023-08-21T05:57:18;102233.91;;;24.04;57.06
82474;BME280;72350;53.232;6.556;2023-08-21T05:59:47;102241.16;;;24.12;57.10
82474;BME280;72350;53.232;6.556;2023-08-21T06:02:14;102238.78;;;24.27;56.78
82474;BME280;72350;53.232;6.556;2023-08-21T06:04:42;102230.72;;;24.31;56.47
82474;BME280;72350;53.232;6.556;2023-08-21T06:07:11;102228.97;;;24.48;56.64
82474;BME280;72350;53.232;6.556;2023-08-21T06:09:39;102230.97;;;24.41;56.58
82474;BME280;72350;53.232;6.556;2023-08-21T06:12:08;102235.59;;;24.54;56.46
82474;BME280;72350;53.232;6.556;2023-08-21T06:14:40;102234.88;;;24.58;56.20
82474;BME280;72350;53.232;6.556;2023-08-21T06:17:09;102243.22;;;24.65;55.88
82474;BME280;72350;53.232;6.556;2023-08-21T06:19:37;102248.53;;;24.85;55.55
82474;BME280;72350;53.232;6.556;2023-08-21T06:22:05;102244.09;;;24.77;55.74
82474;BME280;72350;53.232;6.556;2023-08-21T06:24:33;102244.38;;;24.99;54.97
82474;BME280;72350;53.232;6.556;2023-08-21T06:27:04;102239.09;;;25.03;54.85
82474;BME280;72350;53.232;6.556;2023-08-21T06:29:34;102244.38;;;25.11;54.82
82474;BME280;72350;53.232;6.556;2023-08-21T06:32:05;102242.59;;;25.17;54.96
82474;BME280;72350;53.232;6.556;2023-08-21T06:34:34;102244.78;;;25.15;54.88
82474;BME280;72350;53.232;6.556;2023-08-21T06:37:01;102244.38;;;25.11;55.28
82474;BME280;72350;53.232;6.556;2023-08-21T06:39:30;102249.22;;;25.22;54.68
82474;BME280;72350;53.232;6.556;2023-08-21T06:41:58;102242.59;;;25.28;53.90
82474;BME280;72350;53.232;6.556;2023-08-21T06:44:33;102239.03;;;25.45;54.04
82474;BME280;72350;53.232;6.556;2023-08-21T06:47:01;102239.25;;;25.55;53.55
82474;BME280;72350;53.232;6.556;2023-08-21T06:49:30;102246.59;;;25.68;53.78
82474;BME280;72350;53.232;6.556;2023-08-21T06:51:58;102251.09;;;25.81;53.23
82474;BME280;72350;53.232;6.556;2023-08-21T06:54:26;102240.31;;;25.78;53.37
82474;BME280;72350;53.232;6.556;2023-08-21T06:56:54;102243.41;;;25.76;53.08
82474;BME280;72350;53.232;6.556;2023-08-21T06:59:22;102245.00;;;25.72;53.16
82474;BME280;72350;53.232;6.556;2023-08-21T07:01:50;102244.75;;;25.85;52.80
82474;BME280;72350;53.232;6.556;2023-08-21T07:04:19;102241.78;;;25.92;52.73
82474;BME280;72350;53.232;6.556;2023-08-21T07:06:48;102239.22;;;25.90;52.52
82474;BME280;72350;53.232;6.556;2023-08-21T07:09:16;102243.63;;;25.86;52.71
82474;BME280;72350;53.232;6.556;2023-08-21T07:11:44;102249.50;;;25.97;52.44
82474;BME280;72350;53.232;6.556;2023-08-21T07:14:12;102242.88;;;26.03;52.43
82474;BME280;72350;53.232;6.556;2023-08-21T07:16:40;102245.03;;;26.12;51.85
82474;BME280;72350;53.232;6.556;2023-08-21T07:19:08;102247.50;;;26.09;51.78
82474;BME280;72350;53.232;6.556;2023-08-21T07:21:36;102241.50;;;26.05;52.18
82474;BME280;72350;53.232;6.556;2023-08-21T07:24:06;102244.56;;;26.04;51.59
82474;BME280;72350;53.232;6.556;2023-08-21T07:26:34;102237.16;;;26.14;50.83
82474;BME280;72350;53.232;6.556;2023-08-21T07:29:02;102240.47;;;26.11;51.61
82474;BME280;72350;53.232;6.556;2023-08-21T07:31:31;102240.13;;;26.08;51.47
82474;BME280;72350;53.232;6.556;2023-08-21T07:33:59;102245.03;;;26.12;51.68
82474;BME280;72350;53.232;6.556;2023-08-21T07:36:27;102247.25;;;26.10;51.12
82474;BME280;72350;53.232;6.556;2023-08-21T07:38:55;102246.41;;;26.10;50.77
82474;BME280;72350;53.232;6.556;2023-08-21T07:41:24;102239.06;;;25.97;50.67
82474;BME280;72350;53.232;6.556;2023-08-21T07:43:53;102242.13;;;25.96;50.98
82474;BME280;72350;53.232;6.556;2023-08-21T07:46:21;102243.03;;;25.84;50.58
82474;BME280;72350;53.232;6.556;2023-08-21T07:48:50;102241.53;;;25.93;50.41
82474;BME280;72350;53.232;6.556;2023-08-21T07:51:18;102245.91;;;26.01;50.02
82474;BME280;72350;53.232;6.556;2023-08-21T07:53:46;102251.53;;;26.13;49.95
82474;BME280;72350;53.232;6.556;2023-08-21T07:56:13;102246.22;;;26.17;49.79
82474;BME280;72350;53.232;6.556;2023-08-21T07:58:43;102239.75;;;26.16;49.91
82474;BME280;72350;53.232;6.556;2023-08-21T08:01:11;102252.34;;;26.25;49.94
82474;BME280;72350;53.232;6.556;2023-08-21T08:03:38;102245.06;;;26.29;49.27
82474;BME280;72350;53.232;6.556;2023-08-21T08:06:06;102247.75;;;26.36;49.84
82474;BME280;72350;53.232;6.556;2023-08-21T08:08:34;102251.84;;;26.28;50.02
82474;BME280;72350;53.232;6.556;2023-08-21T08:11:03;102244.09;;;25.95;49.20
82474;BME280;72350;53.232;6.556;2023-08-21T08:13:31;102257.53;;;26.17;49.96
82474;BME280;72350;53.232;6.556;2023-08-21T08:16:00;102251.56;;;26.01;50.54
82474;BME280;72350;53.232;6.556;2023-08-21T08:18:29;102252.59;;;25.95;49.70
82474;BME280;72350;53.232;6.556;2023-08-21T08:20:56;102249.59;;;26.02;49.78
82474;BME280;72350;53.232;6.556;2023-08-21T08:23:24;102254.81;;;26.22;49.18
82474;BME280;72350;53.232;6.556;2023-08-21T08:25:52;102251.25;;;26.43;48.81
82474;BME280;72350;53.232;6.556;2023-08-21T08:28:20;102253.47;;;26.53;48.48
82474;BME280;72350;53.232;6.556;2023-08-21T08:30:48;102249.38;;;26.61;47.76
82474;BME280;72350;53.232;6.556;2023-08-21T08:33:18;102245.19;;;26.63;47.78
82474;BME280;72350;53.232;6.556;2023-08-21T08:35:45;102247.59;;;26.71;46.62
82474;BME280;72350;53.232;6.556;2023-08-21T08:38:14;102251.06;;;26.62;46.46
82474;BME280;72350;53.232;6.556;2023-08-21T08:40:44;102257.94;;;26.66;46.03
82474;BME280;72350;53.232;6.556;2023-08-21T08:43:13;102250.84;;;26.63;46.57
82474;BME280;72350;53.232;6.556;2023-08-21T08:45:41;102253.41;;;26.36;44.99
82474;BME280;72350;53.232;6.556;2023-08-21T08:48:13;102257.00;;;26.31;46.09
82474;BME280;72350;53.232;6.556;2023-08-21T08:50:43;102251.94;;;26.33;47.81
82474;BME280;72350;53.232;6.556;2023-08-21T08:53:12;102254.88;;;26.39;47.89
82474;BME280;72350;53.232;6.556;2023-08-21T08:55:43;102241.41;;;26.57;48.67
82474;BME280;72350;53.232;6.556;2023-08-21T08:58:11;102250.41;;;26.71;48.46
82474;BME280;72350;53.232;6.556;2023-08-21T09:00:40;102254.88;;;26.84;47.05
82474;BME280;72350;53.232;6.556;2023-08-21T09:03:08;102248.38;;;26.84;45.95
82474;BME280;72350;53.232;6.556;2023-08-21T09:05:39;102249.59;;;26.88;46.93
82474;BME280;72350;53.232;6.556;2023-08-21T09:08:13;102248.81;;;26.75;45.41
82474;BME280;72350;53.232;6.556;2023-08-21T09:10:42;102246.41;;;26.84;46.85
82474;BME280;72350;53.232;6.556;2023-08-21T09:13:13;102241.41;;;26.74;46.29
82474;BME280;72350;53.232;6.556;2023-08-21T09:15:42;102246.41;;;26.67;47.33
82474;BME280;72350;53.232;6.556;2023-08-21T09:18:11;102243.38;;;26.57;46.08
82474;BME280;72350;53.232;6.556;2023-08-21T09:20:39;102242.56;;;26.45;46.23
82474;BME280;72350;53.232;6.556;2023-08-21T09:23:07;102244.06;;;26.35;46.09
82474;BME280;72350;53.232;6.556;2023-08-21T09:25:38;102241.22;;;26.35;46.17
82474;BME280;72350;53.232;6.556;2023-08-21T09:28:08;102245.09;;;26.58;45.99
82474;BME280;72350;53.232;6.556;2023-08-21T09:30:47;102244.94;;;26.65;45.29
82474;BME280;72350;53.232;6.556;2023-08-21T09:33:19;102239.09;;;26.54;45.34
82474;BME280;72350;53.232;6.556;2023-08-21T09:35:48;102238.91;;;26.61;45.65
82474;BME280;72350;53.232;6.556;2023-08-21T09:38:16;102241.69;;;26.73;44.62
82474;BME280;72350;53.232;6.556;2023-08-21T09:40:52;102236.28;;;26.43;47.03
82474;BME280;72350;53.232;6.556;2023-08-21T09:43:21;102228.28;;;26.51;46.41
82474;BME280;72350;53.232;6.556;2023-08-21T09:45:50;102227.63;;;26.61;47.84
82474;BME280;72350;53.232;6.556;2023-08-21T09:48:21;102232.47;;;26.49;46.29
82474;BME280;72350;53.232;6.556;2023-08-21T09:50:51;102238.69;;;26.51;47.10
82474;BME280;72350;53.232;6.556;2023-08-21T09:53:20;102232.00;;;26.40;47.35
82474;BME280;72350;53.232;6.556;2023-08-21T09:55:54;102226.63;;;26.10;47.92
82474;BME280;72350;53.232;6.556;2023-08-21T09:58:22;102235.09;;;26.39;46.98
82474;BME280;72350;53.232;6.556;2023-08-21T10:00:51;102229.16;;;26.52;46.81
82474;BME280;72350;53.232;6.556;2023-08-21T10:03:24;102227.19;;;26.41;46.38
82474;BME280;72350;53.232;6.556;2023-08-21T10:05:56;102225.59;;;26.45;46.06
82474;BME280;72350;53.232;6.556;2023-08-21T10:08:25;102225.19;;;26.24;44.89
82474;BME280;72350;53.232;6.556;2023-08-21T10:10:55;102230.91;;;26.41;46.37
82474;BME280;72350;53.232;6.556;2023-08-21T10:13:24;102225.66;;;26.33;47.89
82474;BME280;72350;53.232;6.556;2023-08-21T10:15:51;102222.72;;;26.28;47.39
82474;BME280;72350;53.232;6.556;2023-08-21T10:18:21;102228.75;;;26.48;48.00
82474;BME280;72350;53.232;6.556;2023-08-21T10:20:51;102231.97;;;26.23;45.74
82474;BME280;72350;53.232;6.556;2023-08-21T10:23:27;102221.09;;;26.15;46.96
82474;BME280;72350;53.232;6.556;2023-08-21T10:25:58;102228.56;;;26.09;47.07
82474;BME280;72350;53.232;6.556;2023-08-21T10:28:42;102229.06;;;26.18;48.10
82474;BME280;72350;53.232;6.556;2023-08-21T10:31:30;102228.38;;;26.28;48.08
82474;BME280;72350;53.232;6.556;2023-08-21T10:34:00;102226.84;;;26.20;48.15
82474;BME280;72350;53.232;6.556;2023-08-21T10:37:03;102223.03;;;26.14;46.57
82474;BME280;72350;53.232;6.556;2023-08-21T10:39:32;102228.00;;;26.07;46.70
82474;BME280;72350;53.232;6.556;2023-08-21T10:42:04;102209.09;;;25.96;46.32
82474;BME280;72350;53.232;6.556;2023-08-21T10:44:37;102210.13;;;25.90;46.73
82474;BME280;72350;53.232;6.556;2023-08-21T10:47:15;102207.94;;;26.09;48.52
82474;BME280;72350;53.232;6.556;2023-08-21T10:49:45;102204.91;;;26.27;47.29
82474;BME280;72350;53.232;6.556;2023-08-21T10:52:14;102200.13;;;25.99;47.92
82474;BME280;72350;53.232;6.556;2023-08-21T10:54:44;102217.13;;;26.16;49.06
82474;BME280;72350;53.232;6.556;2023-08-21T10:57:13;102215.72;;;26.30;47.27
82474;BME280;72350;53.232;6.556;2023-08-21T10:59:55;102217.38;;;26.14;47.71
82474;BME280;72350;53.232;6.556;2023-08-21T11:02:24;102217.38;;;26.14;49.93
82474;BME280;72350;53.232;6.556;2023-08-21T11:04:53;102218.94;;;26.22;49.54
82474;BME280;72350;53.232;6.556;2023-08-21T11:07:21;102217.84;;;26.23;47.49
82474;BME280;72350;53.232;6.556;2023-08-21T11:09:50;102219.34;;;26.43;48.01
82474;BME280;72350;53.232;6.556;2023-08-21T11:12:21;102217.44;;;26.60;46.32
82474;BME280;72350;53.232;6.556;2023-08-21T11:14:50;102221.44;;;26.64;47.22
82474;BME280;72350;53.232;6.556;2023-08-21T11:17:18;102227.63;;;26.61;46.08
82474;BME280;72350;53.232;6.556;2023-08-21T11:19:46;102218.78;;;26.74;46.20
82474;BME280;72350;53.232;6.556;2023-08-21T11:22:16;102230.91;;;26.70;46.08
82474;BME280;72350;53.232;6.556;2023-08-21T11:24:45;102227.28;;;26.74;44.41
82474;BME280;72350;53.232;6.556;2023-08-21T11:27:15;102229.25;;;26.74;45.50
82474;BME280;72350;53.232;6.556;2023-08-21T11:29:46;102218.97;;;26.85;44.18
82474;BME280;72350;53.232;6.556;2023-08-21T11:32:15;102227.72;;;26.83;43.81
82474;BME280;72350;53.232;6.556;2023-08-21T11:34:47;102225.00;;;26.88;44.98
82474;BME280;72350;53.232;6.556;2023-08-21T11:37:16;102226.00;;;26.99;44.35
82474;BME280;72350;53.232;6.556;2023-08-21T11:39:47;102220.06;;;27.00;45.04
82474;BME280;72350;53.232;6.556;2023-08-21T11:42:15;102222.16;;;26.88;44.48
82474;BME280;72350;53.232;6.556;2023-08-21T11:44:46;102224.72;;;26.90;43.57
82474;BME280;72350;53.232;6.556;2023-08-21T11:47:17;102222.50;;;27.09;43.87
82474;BME280;72350;53.232;6.556;2023-08-21T11:49:46;102220.72;;;27.19;43.81
82474;BME280;72350;53.232;6.556;2023-08-21T11:52:18;102208.25;;;27.20;44.27
82474;BME280;72350;53.232;6.556;2023-08-21T11:54:48;102202.09;;;27.23;44.01
82474;BME280;72350;53.232;6.556;2023-08-21T11:57:16;102206.53;;;27.36;44.06
82474;BME280;72350;53.232;6.556;2023-08-21T11:59:50;102201.53;;;27.43;44.18
82474;BME280;72350;53.232;6.556;2023-08-21T12:02:22;102204.53;;;27.37;44.85
82474;BME280;72350;53.232;6.556;2023-08-21T12:04:53;102206.19;;;27.33;43.74
82474;BME280;72350;53.232;6.556;2023-08-21T12:07:21;102191.81;;;27.17;42.42
82474;BME280;72350;53.232;6.556;2023-08-21T12:09:49;102201.84;;;27.25;42.95
82474;BME280;72350;53.232;6.556;2023-08-21T12:12:17;102197.03;;;27.26;43.99
82474;BME280;72350;53.232;6.556;2023-08-21T12:14:46;102198.81;;;27.15;42.04
82474;BME280;72350;53.232;6.556;2023-08-21T12:17:15;102190.75;;;27.23;43.05
82474;BME280;72350;53.232;6.556;2023-08-21T12:19:43;102184.69;;;27.32;43.21
82474;BME280;72350;53.232;6.556;2023-08-21T12:22:11;102186.47;;;27.38;43.54
82474;BME280;72350;53.232;6.556;2023-08-21T12:24:40;102187.63;;;27.42;43.35
82474;BME280;72350;53.232;6.556;2023-08-21T12:27:07;102186.56;;;27.26;42.61
82474;BME280;72350;53.232;6.556;2023-08-21T12:29:36;102186.56;;;27.26;42.74
82474;BME280;72350;53.232;6.556;2023-08-21T12:32:04;102181.19;;;27.25;42.90
82474;BME280;72350;53.232;6.556;2023-08-21T12:34:33;102182.50;;;27.39;43.28
82474;BME280;72350;53.232;6.556;2023-08-21T12:37:01;102182.91;;;27.48;43.56
82474;BME280;72350;53.232;6.556;2023-08-21T12:39:30;102180.72;;;27.33;42.86
82474;BME280;72350;53.232;6.556;2023-08-21T12:41:58;102177.06;;;26.98;42.04
82474;BME280;72350;53.232;6.556;2023-08-21T12:44:26;102165.75;;;26.98;42.61
82474;BME280;72350;53.232;6.556;2023-08-21T12:46:53;102175.94;;;26.99;42.34
82474;BME280;72350;53.232;6.556;2023-08-21T12:49:21;102190.19;;;27.05;41.99
82474;BME280;72350;53.232;6.556;2023-08-21T12:51:50;102184.78;;;27.20;42.08
82474;BME280;72350;53.232;6.556;2023-08-21T12:54:18;102185.91;;;27.19;42.32
82474;BME280;72350;53.232;6.556;2023-08-21T12:56:46;102178.84;;;27.05;41.36
82474;BME280;72350;53.232;6.556;2023-08-21T12:59:14;102188.59;;;26.75;43.70
82474;BME280;72350;53.232;6.556;2023-08-21T13:01:45;102186.66;;;26.64;43.98